Acton Vale, Canada
Current Conditions -  °F | °C
As of 11:00 AM on Thursday 27 Nov 2014 (Local Time) from CYHU Reporting Station
Overcast Overcast  
Wind Chill: 21°   Ceiling: 3300
Heat Index: 28°   Visibility: 9mi
Dew Point: 18°   Wind: 7mph
Humidity: 64%   Direction: 10°N
Pressure: 30.05"   Gusts: NA
Location:  45.63°N, 72.57°W
Report Text: CYHU 271600Z AUTO 01006KT 330V040 9SM OVC033 M02/M08 A3005 RMK SLP178
Loading
Personal Weather Stations






























Interactive Weather Map New forecast layout! Learn more

10-Day Weather Forecast

Advertisements
Track Severe Weather on mobile